Tiempo atmosférico en la estación meteorológica de Jerez de la Frontera Aeropuerto, Cádiz (27 m.)



Fecha
DESCASC
Temp. máxima en grados centígrados (hora)
DESCASC
Temp. mínima en grados centígrados (hora)
DESCASC
Temp. media en grados centígrados
DESCASC
Racha de viento máxima en m/sg (hora)
DESCASC
Velocidad máxima media en intervalos de 10 minutos(hora)
DESCASC
Precipitaciones diarias en mm
DESCASC
Precipitaciones de 00:00 a 06:00 en mm
DESCASC
Precipitaciones de 06:00 a 12:00 en mm
DESCASC
Precipitaciones de 12:00 a 18:00 en mm
DESCASC
Precipitaciones de 18:00 a 24:00 en mm
DESCASC
08-12-2019 19.3 (15:40) 3.8 (08:30) 11.5 6.11 (18:30) 4.17 (18:20) 0 0 0 0 0
07-12-2019 19.9 (14:40) 3.8 (08:30) 11.8 6.67 (10:50) 3.33 (17:30) 0 0 0 0 0
06-12-2019 20.3 (15:30) 6.4 (06:30) 13.3 7.22 (15:30) 4.72 (08:40) -- 0 -- 0 0
05-12-2019 18.2 (14:40) 3.1 (00:00) 10.7 8.33 (13:10) 6.11 (13:10) 0 0 0 0 0
04-12-2019 16.7 (14:30) 6.4 (00:00) 11.6 -- (--) -- (--) 0 0 0 0 0
03-12-2019 18.2 (15:40) 7.4 (00:00) 12.8 10.28 (12:30) 7.78 (12:30) 0 0 0 0 0
02-12-2019 16.7 (15:30) 8.3 (00:00) 12.5 7.78 (16:00) 5 (16:50) 0 0 0 0 0
01-12-2019 -- (--) -- (--) -- -- (--) -- (--) -- -- -- -- 0
30-11-2019 20.6 (15:20) 9.1 (00:00) 14.9 7.22 (16:00) 4.72 (16:40) 0 0 0 0 0
29-11-2019 20.4 (14:30) 6.5 (00:00) 13.4 8.89 (16:10) 5.83 (12:30) 0 0 0 0 0
28-11-2019 20.3 (14:30) 8.6 (00:00) 14.4 7.22 (18:00) 3.89 (15:00) 0 0 0 0 0
27-11-2019 20.6 (15:00) 11.1 (00:00) 15.9 8.89 (00:20) 6.67 (00:30) 0.8 0.8 0 0 0
26-11-2019 19.9 (15:20) 13.7 (00:00) 16.8 8.33 (23:59) 6.11 (16:10) 1 0 0.1 0.8 0.1
25-11-2019 20.1 (14:00) 8.1 (00:00) 14.1 10.83 (15:40) 7.78 (13:50) 0 0 0 0 0
24-11-2019 17.5 (14:20) 4.4 (00:00) 11 7.22 (15:30) 4.72 (15:50) 0 0 0 0 0
23-11-2019 17.4 (14:40) 10 (00:00) 13.7 12.78 (06:00) 7.78 (06:00) 1.2 1.2 0 0 0
22-11-2019 18.8 (14:50) 14.2 (00:00) 16.5 18.61 (16:30) 13.06 (16:10) 32.6 11.4 10.2 3.5 7.5
21-11-2019 17.5 (12:40) 11.1 (00:00) 14.3 7.78 (13:20) 5.83 (13:20) 6.6 2 0.1 4.2 0.3
20-11-2019 15.4 (13:40) 2.3 (00:00) 8.8 13.33 (14:00) 8.33 (14:40) 2.8 0 0.8 1.9 0.1
19-11-2019 17.8 (15:10) 3.5 (00:00) 10.6 5.83 (14:40) 3.89 (17:20) 0 0 0 0 0
18-11-2019 16.7 (15:00) 5.5 (00:00) 11.1 16.11 (02:00) 10 (02:00) 0 0 0 0 0
17-11-2019 17 (16:00) 1.3 (00:00) 9.1 9.72 (16:40) 6.94 (16:50) 2.6 0 0 2.6 0
16-11-2019 15.2 (15:40) 0.1 (00:00) 7.6 10.83 (16:20) 4.72 (16:50) 0 0 0 0 0
15-11-2019 15.5 (15:00) 7.6 (00:00) 11.5 12.5 (16:40) 7.78 (17:00) 0 0 0 0 0
14-11-2019 -- (--) -- (--) -- 15 (12:00) 9.72 (12:00) 0.8 0 0.4 0.4 0
13-11-2019 -- (--) -- (--) -- 11.67 (12:20) 8.89 (12:30) 0 0 0 0 0
12-11-2019 20.2 (15:40) 7.9 (00:00) 14.1 8.89 (19:00) 6.39 (18:50) 0 0 0 0 0
11-11-2019 18.4 (16:40) 12.6 (03:30) 15.5 11.67 (01:20) 8.61 (01:10) 0 0 0 0 0
10-11-2019 19.6 (14:40) 10.6 (00:00) 15.1 13.89 (14:40) 10 (14:40) 0.1 0.1 0 0 0

Gráficas

Temp. máximas Temp. mínimas Temp. medias Precipitaciones Rachas de viento máximas Velocidades máximas media en intervalos de 10 minutos

Datos horarios

Fecha y hora oficial Temperatura (ºC) Velocidad del viento (km/h) Dirección del viento Racha (km/h) Dirección de racha Precipitación (mm) Presión (hPa) Tendencia (hPa) Humedad (%)
2019-12-09 23:00:00 10.2 10 Noroeste 18 Noroeste 0 1025.7 0.3 92
2019-12-09 22:00:00 10.1 13 Noroeste 15 Noroeste 0 1026 0.4 92
2019-12-09 21:00:00 11 10 Noroeste 13 Noroeste 0 1025.8 0.6 89
2019-12-09 20:00:00 10.7 9 Nordeste 17 Norte 0 1025.4 0.3 87
2019-12-09 19:00:00 12.1 13 Norte 17 Norte 0 1025.6 0.5 87
2019-12-09 18:00:00 15.7 14 Norte 26 Norte 0 1025.2 -0.1 75
2019-12-09 17:00:00 18 14 Norte 24 Norte 0 1025.1 -0.9 71
2019-12-09 16:00:00 18.4 15 Norte 32 Norte 0 1025.1 -1.6 72
2019-12-09 15:00:00 18.3 15 Norte 26 Noroeste 0 1025.3 -2.2 72
2019-12-09 14:00:00 18 12 Norte 17 Norte 0 1026 -1.5 74
2019-12-09 13:00:00 18.1 4 Norte 11 Nordeste 0 1026.7 -0.4 77
2019-12-09 12:00:00 16.1 4 Oeste 8 Oeste 0 1027.5 1.1 85
2019-12-09 11:00:00 13.6 3 Sudoeste 9 Noroeste 0 1027.5 1.7 93
2019-12-09 10:00:00 11.9 0 Calma 8 Nordeste 0 1027.1 1.9 95
2019-12-09 09:00:00 10.7 0 Calma 5 Sur 0 1026.4 1.4 94
2019-12-09 08:00:00 9.9 2 Noroeste 5 Oeste 0 1025.8 0.8 95
2019-12-09 07:00:00 9.3 5 Este 9 Este 0 1025.2 0.3 96
2019-12-09 06:00:00 8.9 0 Calma 5 Nordeste 0 1025 0.2 97
2019-12-09 05:00:00 8.3 0 Calma 8 Nordeste 0 1025 0.1 97
2019-12-09 04:00:00 7.8 0 Calma 5 Nordeste 0 1024.9 -0.6 97
2019-12-09 03:00:00 7.8 2 Nordeste 5 Norte 0 1024.8 -0.4 96
2019-12-09 02:00:00 8.2 0 Calma 8 Nordeste 0 1024.9 -0.3 97
2019-12-09 01:00:00 8.5 6 Nordeste 8 Nordeste 0 1025.5 0.6 94
2019-12-09 00:00:00 9.2 4 Este 8 Este 0 1025.2 0.5 93
2019-12-08 23:00:00 9.6 3 Este 5 Sur 0 1025.2 0.6 93
2019-12-08 22:00:00 10.3 3 Sur 8 Sudeste 0 1024.9 0.9 92
2019-12-08 21:00:00 11.6 0 Calma 11 Oeste 0 1024.7 1.3 87
2019-12-08 20:00:00 12.8 6 Oeste 11 Oeste 0 1024.6 1.6 83
2019-12-08 19:00:00 13.5 11 Oeste 22 Oeste 0 1024 1.4 81
2019-12-08 18:00:00 16.5 10 Oeste 15 Oeste 0 1023.4 0.5 66
2019-12-08 17:00:00 18.2 7 Oeste 13 Oeste 0 1023 0 56
2019-12-08 16:00:00 18.9 3 Sudoeste 13 Sudoeste 0 1022.6 -1.5 58
2019-12-08 15:00:00 18.6 7 Sudoeste 15 Sur 0 1022.9 -1.6 60
2019-12-08 14:00:00 17.9 6 Sudoeste 13 Sudoeste 0 1023 -1.6 63
2019-12-08 13:00:00 16.6 4 Sur 9 Sur 0 1024.1 0 69
2019-12-08 12:00:00 14.4 3 Norte 9 Norte 0 1024.5 1 76
2019-12-08 11:00:00 11.9 2 Nordeste 5 Este 0 1024.6 1.6 86
2019-12-08 10:00:00 8 3 Este 5 Este 0 1024.1 1.6 94
2019-12-08 09:00:00 4.6 0 Calma 8 Este 0 1023.5 1.4 98
2019-12-08 08:00:00 4.2 6 Nordeste 9 Noroeste 0 1023 0.9 97
2019-12-08 07:00:00 4.8 0 Calma 8 Este 0 1022.5 0.1 97
2019-12-08 06:00:00 5.5 4 Nordeste 9 Este 0 1022.1 -0.3 97
2019-12-08 05:00:00 4.8 6 Nordeste 8 Nordeste 0 1022.1 -0.4 96
2019-12-08 04:00:00 5.3 4 Este 5 Nordeste 0 1022.4 -0.2 95
2019-12-08 03:00:00 6.1 5 Nordeste 8 Nordeste 0 1022.4 -0.4 94
2019-12-08 02:00:00 6.1 5 Este 8 Este 0 1022.5 0.1 93
2019-12-08 01:00:00 6.5 4 Nordeste -- -- 0 1022.6 0.4 94
2019-12-08 00:00:00 7 4 Nordeste 9 Nordeste 0 1022.8 1.2 93
2019-12-07 23:00:00 8 5 Nordeste 8 Nordeste 0 1022.4 1.3 90
2019-12-07 22:00:00 8.9 0 Calma 5 Este 0 1022.2 1.5 87
2019-12-07 21:00:00 10.5 3 Noroeste 9 Noroeste 0 1021.6 1.4 81
2019-12-07 20:00:00 11.5 3 Oeste 8 Norte 0 1021.1 1.6 77
2019-12-07 19:00:00 12.6 7 Noroeste 11 Noroeste 0 1020.7 1.6 75
2019-12-07 18:00:00 16.3 10 Norte 17 Norte 0 1020.2 1.2 62
2019-12-07 17:00:00 19 8 Noroeste 13 Noroeste 0 1019.5 0.1 53
2019-12-07 16:00:00 19.5 7 Noroeste 18 Noroeste 0 1019.1 -1.2 52
2019-12-07 15:00:00 19.4 9 Noroeste 18 Noroeste 0 1019 -1.9 53
2019-12-07 14:00:00 19.1 5 Oeste 11 Noroeste 0 1019.4 -1.5 54
2019-12-07 13:00:00 17 6 Norte 11 Noroeste 0 1020.3 0.1 66
2019-12-07 12:00:00 14.4 2 Nordeste 8 Noroeste 0 1020.9 1.3 74
2019-12-07 11:00:00 11.1 7 Noroeste 24 Noroeste 0 1020.9 1.9 86
2019-12-07 10:00:00 8 0 Calma 8 Noroeste 0 1020.2 1.6 94
2019-12-07 09:00:00 4.9 6 Norte 9 Noroeste 0 1019.6 1.4 97
2019-12-07 08:00:00 4.2 3 Nordeste 5 Este 0 1019 0.6 96
2019-12-07 07:00:00 5.5 3 Oeste 8 Sudeste 0 1018.6 0.4 95
2019-12-07 06:00:00 5.7 3 Nordeste 5 Sudeste 0 1018.2 0.1 95
2019-12-07 05:00:00 5.7 3 Noroeste 8 Norte 0 1018.4 0.1 95
2019-12-07 04:00:00 6 2 Norte 5 Noroeste 0 1018.2 0.1 94
2019-12-07 03:00:00 6.1 5 Nordeste 8 Nordeste 0 1018.1 0.2 95
2019-12-07 02:00:00 6.6 0 Calma 9 Sur 0 1018.3 0.9 91
2019-12-07 01:00:00 8.1 5 Norte 13 Noroeste 0 1018.1 0.9 90
2019-12-07 00:00:00 8.2 10 Norte 11 Norte 0 1017.9 1.1 90
2019-12-06 23:00:00 8.3 4 Nordeste 9 Nordeste 0 1017.4 0.9 87
2019-12-06 22:00:00 9.7 3 Norte 8 Este 0 1017.2 1.3 88
2019-12-06 21:00:00 10.5 5 Este 8 Este 0 1016.8 1.5 84
2019-12-06 20:00:00 13.3 5 Sur 9 Sudoeste 0 1016.5 1.6 75
2019-12-06 19:00:00 13.9 5 Sudeste 11 Norte 0 1015.9 1.3 70
2019-12-06 18:00:00 16.4 7 Norte 18 Norte 0 1015.3 0.7 62
2019-12-06 17:00:00 19 13 Norte 22 Norte 0 1014.9 0 54
2019-12-06 16:00:00 18.9 15 Norte 26 Norte 0 1014.6 -1 53
2019-12-06 15:00:00 19.7 11 Norte 18 Norte 0 1014.6 -1.7 53
2019-12-06 14:00:00 19.4 10 Nordeste 18 Norte 0 1014.9 -1.7 53
2019-12-06 13:00:00 18.2 10 Norte 18 Noroeste 0 1015.6 -0.4 61
2019-12-06 12:00:00 15.4 5 Norte 11 Norte -- 1016.3 1.1 70
2019-12-06 11:00:00 12.3 8 Norte 18 Norte 0 1016.6 2.2 80
2019-12-06 10:00:00 10.8 6 Norte 13 Norte 0 1016 2.3 85
2019-12-06 09:00:00 8.3 9 Norte 24 Norte 0 1015.2 1.8 91
2019-12-06 08:00:00 7.2 0 Calma 21 Norte 0 1014.4 1.1 93
2019-12-06 07:00:00 7.6 15 Norte 22 Norte 0 1013.7 0.3 95
2019-12-06 06:00:00 7.2 4 Norte 11 Norte 0 1013.4 0.4 95
2019-12-06 05:00:00 7.7 5 Noroeste 11 Norte 0 1013.3 0.5 92
2019-12-06 04:00:00 8.5 5 Nordeste 9 Nordeste 0 1013.4 0.1 92
2019-12-06 03:00:00 8.7 5 Norte 9 Norte 0 1013 -0.3 88
2019-12-06 02:00:00 8.9 7 Nordeste 18 Norte 0 1012.8 -0.2 86
2019-12-06 01:00:00 9.6 13 Norte 17 Norte 0 1013.3 0.7 86
2019-12-06 00:00:00 9.7 14 Norte 18 Norte 0 1013.3 1.3 87
2019-12-05 23:00:00 9.9 10 Norte 13 Norte 0 1013 1.2 88
2019-12-05 22:00:00 10.2 7 Nordeste -- -- 0 1012.6 1.5 88
2019-12-05 21:00:00 12.7 3 Este -- -- 0 1012 1.3 79
2019-12-05 20:00:00 13.6 4 Nordeste 13 Nordeste 0 1011.8 1.8 70
2019-12-05 19:00:00 14.1 6 Norte 15 Norte 0 1011.1 1.5 71
2019-12-05 18:00:00 15.2 13 Norte 17 Norte 0 1010.7 1 66
2019-12-05 17:00:00 16.8 11 Nordeste 26 Norte 0 1010 0 58
2019-12-05 16:00:00 17.7 8 Nordeste 22 Nordeste 0 1009.6 -0.8 54
2019-12-05 15:00:00 17.9 13 Nordeste 24 Norte 0 1009.7 -1.4 53
2019-12-05 14:00:00 17.1 11 Nordeste 30 Norte 0 1010 -1.2 54
2019-12-05 13:00:00 15.9 21 Norte 28 Norte 0 1010.4 -0.2 61
2019-12-05 12:00:00 14 21 Norte 28 Norte 0 1011.1 1.1 66
2019-12-05 11:00:00 11.2 9 Norte 15 Norte 0 1011.2 1.8 71
2019-12-05 10:00:00 8.2 9 Norte 18 Norte 0 1010.6 1.4 81
2019-12-05 09:00:00 4 10 Norte 13 Norte 0 1010 1.9 95
2019-12-05 08:00:00 4.1 5 Norte 18 Norte 0 1009.4 0.9 93
2019-12-05 07:00:00 3.2 11 Nordeste 15 Nordeste 0 1009.2 0.6 94
2019-12-05 06:00:00 3.4 3 Noroeste 5 Noroeste 0 1008.1 -0.1 95
2019-12-05 05:00:00 4.1 0 Calma 5 Sur 0 1008.5 0.1 94
2019-12-05 04:00:00 4.2 0 Calma 8 Norte 0 1008.6 0.3 93
2019-12-05 03:00:00 5.4 3 Nordeste 5 Nordeste 0 1008.2 -0.2 91
2019-12-05 02:00:00 6.6 0 Calma 13 Nordeste 0 1008.4 0.4 87
2019-12-05 01:00:00 7.2 5 Este 13 Nordeste 0 1008.3 0.4 87
2019-12-05 00:00:00 6.6 7 Este 11 Este 0 1008.4 0.8 88
2019-12-04 23:00:00 8.2 8 Este -- -- 0 1008 0.8 85
2019-12-04 22:00:00 9.3 3 Nordeste -- -- 0 1007.9 1.3 82
2019-12-04 21:00:00 9.2 6 Este 11 Nordeste 0 1007.6 1.2 83
2019-12-04 20:00:00 9.4 5 Nordeste 9 Nordeste 0 1007.2 0.9 80
2019-12-04 19:00:00 10.2 4 Sudoeste 13 Sudoeste 0 1006.6 0.4 70
2019-12-04 18:00:00 12.6 10 Sudoeste 21 Oeste 0 1006.4 0.7 57
2019-12-04 17:00:00 14 12 Oeste 32 Oeste 0 1006.3 0.2 56
2019-12-04 16:00:00 15 20 Oeste 33 Oeste 0 1006.2 -0.8 48
2019-12-04 15:00:00 15.4 23 Sudoeste 32 Sudoeste 0 1005.7 -2 47
2019-12-04 14:00:00 16.1 20 Sudoeste 41 Sudoeste 0 1006.1 -2.1 56
2019-12-04 13:00:00 15.4 13 Sudoeste 26 Oeste 0 1007 -0.8 68
2019-12-04 12:00:00 12.4 2 Sur 9 Sudeste 0 1007.7 0.5 81
2019-12-04 11:00:00 10.7 3 Sudoeste 8 Sudoeste 0 1008.2 1.3 90
2019-12-04 10:00:00 8.8 2 Este 5 Noroeste 0 1007.8 1 99
2019-12-04 09:00:00 7.2 0 Calma 5 Este 0 1007.2 0.7 99
2019-12-04 08:00:00 7.8 4 Este 8 Este 0 1006.9 0 98
2019-12-04 07:00:00 8 0 Calma 9 Norte 0 1006.8 -0.5 99
2019-12-04 06:00:00 7.1 5 Noroeste 15 Noroeste 0 1006.5 -1.1 98
2019-12-04 05:00:00 7 5 Nordeste 8 Nordeste 0 1006.9 -1.3 98
2019-12-04 04:00:00 7.3 3 Nordeste -- -- -- 1007.3 -1.5 97
2019-12-04 03:00:00 8.3 3 Este 8 Este 0 1007.6 -1.3 96
2019-12-04 02:00:00 9.3 0 Calma 8 Nordeste 0 1008.2 0 96
2019-12-04 01:00:00 9.4 0 Calma 8 Este 0 1008.8 0.5 95
2019-12-04 00:00:00 8.4 5 Este 9 Nordeste 0 1008.9 1 97
2019-12-03 23:00:00 7.8 6 Norte 9 Norte 0 1008.2 0.5 93
2019-12-03 22:00:00 9.4 0 Calma 9 Sudeste 0 1008.3 1 90
2019-12-03 21:00:00 10.8 7 Oeste 11 Oeste 0 1007.9 0.9 86
2019-12-03 20:00:00 11.4 3 Sudoeste 11 Norte 0 1007.7 1.2 83
2019-12-03 19:00:00 13.3 0 Calma -- -- 0 1007.3 1.2 76
2019-12-03 18:00:00 14.9 12 Norte 28 Norte 0 1007 1.1 69
2019-12-03 17:00:00 17.2 18 Norte 26 Norte 0 1006.5 0.1 61
2019-12-03 16:00:00 17.9 18 Norte 28 Norte 0 1006.1 -1 59
2019-12-03 15:00:00 17.5 20 Norte 35 Norte 0 1005.9 -1.8 62
2019-12-03 14:00:00 16.5 24 Norte 35 Norte 0 1006.4 -1.7 67
2019-12-03 13:00:00 15.5 24 Norte 37 Norte 0 1007.1 -0.8 69
2019-12-03 12:00:00 14 24 Norte 33 Norte 0 1007.7 0 76
2019-12-03 11:00:00 12.8 23 Norte 33 Norte 0 1008.1 0.9 81
2019-12-03 10:00:00 10.4 18 Norte 30 Norte 0 1007.9 1 88
2019-12-03 09:00:00 8.9 17 Norte 28 Norte 0 1007.7 0.7 92
2019-12-03 08:00:00 8.8 21 Norte 26 Norte 0 1007.2 0.1 94
2019-12-03 07:00:00 8.4 9 Norte 17 Norte 0 1006.9 -0.8 94
2019-12-03 06:00:00 9.3 10 Norte 17 Norte 0 1007 -0.8 94
2019-12-03 05:00:00 10.3 10 Noroeste 17 Norte 0 1007.1 -0.9 92
2019-12-03 04:00:00 11.7 0 Calma 26 Norte 0 1007.7 -0.6 85
2019-12-03 03:00:00 10.6 7 Nordeste 21 Nordeste 0 1007.8 -0.6 91
2019-12-03 02:00:00 8.8 3 Sudoeste -- -- -- 1008 -0.5 96
2019-12-03 01:00:00 9.1 0 Calma 11 Sudeste 0 1008.3 0 92
2019-12-03 00:00:00 9.4 5 Norte 17 Noroeste 0 1008.4 0.5 91
2019-12-02 23:00:00 9.1 5 Nordeste 11 Norte 0 1008.5 1 92
2019-12-02 22:00:00 9.9 5 Norte 9 Norte 0 1008.3 1.7 94
2019-12-02 21:00:00 10.8 4 Norte 8 Norte 0 1007.9 1.8 91
2019-12-02 20:00:00 11.8 3 Nordeste 9 Nordeste 0 1007.5 1.8 89
2019-12-02 19:00:00 12.1 5 Norte 9 Nordeste 0 1006.6 1.4 85
2019-12-02 18:00:00 13 9 Nordeste 26 Este 0 1006.1 1.1 78
2019-12-02 17:00:00 14.2 14 Este 28 Este 0 1005.7 0.4 72
2019-12-02 16:00:00 15.2 17 Este 28 Nordeste 0 1005.2 -0.5 71
2019-12-02 15:00:00 15.8 13 Este 22 Este 0 1005 -1.4 70
2019-12-02 14:00:00 15.1 14 Este 26 Este 0 1005.3 -0.9 76
2019-12-02 13:00:00 15.2 14 Este 21 Este 0 1005.7 0.2 76
2019-12-02 12:00:00 14.2 12 Nordeste 17 Nordeste 0 1006.4 1.4 81
2019-12-02 11:00:00 13.1 8 Nordeste 13 Nordeste 0 1006.2 1.5 91
2019-12-02 10:00:00 12.1 4 Norte 8 Norte 0 1005.5 1.1 96
2019-12-02 09:00:00 11.3 5 Nordeste 9 Nordeste 0 1005 0.6 97
2019-12-02 08:00:00 11.1 6 Norte 11 Norte 0 1004.7 -0.1 97
2019-12-02 07:00:00 10.9 3 Este 8 Este 0 1004.4 -0.6 97
2019-12-02 06:00:00 10.8 3 Norte -- -- 0 1004.4 -0.9 97
2019-12-02 05:00:00 10.6 0 Calma 9 Este 0 1004.8 -1 97
2019-12-02 04:00:00 10.4 6 Este 9 Este 0 1005 -1.4 96
2019-12-02 03:00:00 11.2 4 Nordeste 9 Norte 0 1005.3 -1.6 94
2019-12-02 02:00:00 11.5 5 Sur -- -- -- 1005.8 -1.3 93
2019-12-02 01:00:00 11.3 2 Nordeste 8 Sur 0 1006.4 -0.8 93
2019-12-02 00:00:00 10.9 5 Sudeste -- -- 0 1006.9 -0.8 94
2019-12-01 23:00:00 11.4 8 Sudoeste 13 Sudoeste 0 1007.1 -0.9 89
2019-12-01 22:00:00 13.1 10 Sudoeste 17 Sudoeste 0 1007.2 -0.8 88
2019-12-01 21:00:00 12.3 9 Sur 13 Sur 0 1007.7 -0.4 93
2019-12-01 20:00:00 11.8 10 Sudoeste 13 Sudoeste 0 1008 -0.1 92
2019-12-01 19:00:00 12.4 9 Sudoeste 18 Sudoeste 0 1008 -- 93
2019-12-01 18:00:00 14.3 13 Sudoeste 30 Oeste 0 1008.1 -- 86
2019-12-01 17:00:00 15 21 Sudoeste -- -- -- 1008.1 -- 86
2019-12-01 16:00:00 -- -- -- -- -- -- -- -- --
2019-12-01 15:00:00 -- -- -- -- -- -- -- -- --
2019-12-01 14:00:00 -- -- -- -- -- -- -- -- --
2019-12-01 13:00:00 -- -- -- -- -- -- -- -- --
2019-12-01 12:00:00 -- -- -- -- -- -- -- -- --
2019-12-01 11:00:00 -- -- -- -- -- -- -- -- --
2019-12-01 10:00:00 -- -- -- -- -- -- -- -- --
2019-12-01 09:00:00 -- -- -- -- -- -- -- -- --
2019-12-01 08:00:00 -- -- -- -- -- -- -- -- --
2019-12-01 07:00:00 -- -- -- -- -- -- -- -- --
2019-12-01 06:00:00 -- -- -- -- -- -- -- -- --
2019-12-01 05:00:00 -- -- -- -- -- -- -- -- --
2019-12-01 04:00:00 -- -- -- -- -- -- -- -- --
2019-12-01 03:00:00 14.6 3 Sudoeste 18 Oeste 0 1014.5 -1.6 97
2019-12-01 02:00:00 15 11 Oeste 17 Oeste 0.1 1015.1 -1.3 96
2019-12-01 01:00:00 14.8 10 Sur 15 Sur 0.2 1015.5 -1.3 93
2019-12-01 00:00:00 14.8 6 Sur 13 Sur 0 1016.1 -1.1 91
2019-11-30 23:00:00 14.6 11 Sur 13 Sur 0 1016.4 -1.1 92
2019-11-30 22:00:00 15.4 7 Sudeste 11 Sudeste 0 1016.8 -0.5 87
2019-11-30 21:00:00 15.6 7 Sur 22 Oeste 0 1017.2 0.1 85
2019-11-30 20:00:00 15.6 13 Oeste 18 Oeste 0 1017.5 0.5 83
2019-11-30 19:00:00 15.8 11 Oeste 22 Oeste 0 1017.3 0.3 75
2019-11-30 18:00:00 17.2 12 Oeste 26 Oeste 0 1017.1 -0.1 65
2019-11-30 17:00:00 18.8 15 Oeste 26 Oeste 0 1017 -1.2 60
2019-11-30 16:00:00 20 16 Oeste 26 Oeste 0 1017 -1.9 60
2019-11-30 15:00:00 20.4 10 Oeste 22 Noroeste 0 1017.2 -2.5 60
2019-11-30 14:00:00 19.7 9 Noroeste 15 Oeste 0 1018.2 -1.6 61
2019-11-30 13:00:00 18.2 6 Norte 15 Norte 0 1018.9 -0.5 70
2019-11-30 12:00:00 16.7 6 Noroeste 11 Noroeste 0 1019.7 0.7 78
2019-11-30 11:00:00 13.8 6 Norte 15 Norte 0 1019.8 1 86
2019-11-30 10:00:00 11.3 13 Norte 21 Norte 0 1019.4 1.1 94
2019-11-30 09:00:00 9.9 11 Noroeste 17 Norte 0 1019 0.8 96
2019-11-30 08:00:00 9.5 9 Noroeste 15 Noroeste 0 1018.8 0.5 96
2019-11-30 07:00:00 9.5 10 Noroeste 17 Noroeste 0 1018.3 -0.2 96
2019-11-30 06:00:00 9.3 7 Noroeste 11 Noroeste 0 1018.2 -0.5 96
2019-11-30 05:00:00 9.8 4 Oeste 11 Norte 0 1018.3 -0.5 96
2019-11-30 04:00:00 10.8 9 Norte 22 Norte 0 1018.5 -0.3 94
2019-11-30 03:00:00 11 12 Norte 17 Norte 0 1018.7 0.1 94
2019-11-30 02:00:00 11.7 13 Norte 18 Norte 0 1018.8 0.3 93
2019-11-30 01:00:00 11.3 8 Norte 21 Noroeste 0 1018.8 0.2 94
2019-11-30 00:00:00 11.6 9 Noroeste 15 Noroeste 0 1018.6 -0.1 91
2019-11-29 23:00:00 12 12 Norte 21 Noroeste 0 1018.5 -0.1 90
2019-11-29 22:00:00 12.3 13 Norte 17 Noroeste 0 1018.6 0 89
2019-11-29 21:00:00 13 0 Calma 11 Norte 0 1018.7 0.5 88
2019-11-29 20:00:00 14.1 11 Norte 15 Norte 0 1018.6 0.4 83
2019-11-29 19:00:00 15.1 13 Norte 17 Norte 0 1018.6 0.6 79
2019-11-29 18:00:00 17.7 14 Norte 30 Noroeste 0 1018.2 0 69
2019-11-29 17:00:00 19.6 17 Norte 32 Noroeste 0 1018.2 -0.6 61
2019-11-29 16:00:00 20.2 17 Norte 30 Norte 0 1018 -1.3 60
2019-11-29 15:00:00 20.2 18 Norte 28 Norte 0 1018.2 -1.7 61
2019-11-29 14:00:00 19.9 18 Norte 28 Norte 0 1018.8 -1.2 63
2019-11-29 13:00:00 19.1 19 Norte 28 Norte 0 1019.3 -0.2 68
2019-11-29 12:00:00 17.5 17 Norte 24 Norte 0 1019.9 1.1 77
2019-11-29 11:00:00 14.9 6 Noroeste 11 Noroeste 0 1020 1.5 87
2019-11-29 10:00:00 11.1 4 Noroeste 8 Noroeste 0 1019.5 1.3 100
2019-11-29 09:00:00 7.5 3 Sudoeste 5 Sudoeste 0 1018.8 0.7 100
2019-11-29 08:00:00 6.8 4 Noroeste 5 Noroeste 0 1018.5 0.7 100
2019-11-29 07:00:00 6.8 0 Calma 2 Sudeste 0 1018.2 0.2 99
2019-11-29 06:00:00 7.2 2 Nordeste 4 Nordeste 0 1018.1 0.3 99
2019-11-29 05:00:00 7.3 0 Calma 4 Sur 0 1017.8 0.2 99
2019-11-29 04:00:00 7.9 0 Calma 4 Sur 0 1018 0.1 99
2019-11-29 03:00:00 8.2 0 Calma 5 Sudeste 0 1017.8 -0.1 99
2019-11-29 02:00:00 9.2 3 Noroeste 5 Noroeste 0 1017.6 -0.2 99
2019-11-29 01:00:00 9.9 2 Norte -- -- 0 1017.9 0.5 99
2019-11-29 00:00:00 10.1 2 Nordeste 9 Norte 0 1017.9 0.6 98
2019-11-28 23:00:00 10.3 5 Norte 8 Norte 0 1017.8 0.9 97
2019-11-28 22:00:00 11.4 2 Este 8 Noroeste 0 1017.4 0.8 95
2019-11-28 21:00:00 12.4 5 Norte 13 Noroeste 0 1017.3 1.2 94
2019-11-28 20:00:00 13.8 11 Noroeste 15 Noroeste 0 1016.9 1 90
2019-11-28 19:00:00 15.2 12 Noroeste 17 Oeste 0 1016.6 1 78
2019-11-28 18:00:00 17 9 Noroeste 26 Noroeste 0 1016.1 0.3 76
2019-11-28 17:00:00 19.1 12 Norte 15 Norte 0 1015.9 -0.6 67
2019-11-28 16:00:00 19.7 11 Noroeste 21 Oeste 0 1015.6 -1.5 64
2019-11-28 15:00:00 20 14 Noroeste 18 Noroeste 0 1015.8 -2 61
2019-11-28 14:00:00 19.4 7 Norte 15 Noroeste 0 1016.5 -1.4 64
2019-11-28 13:00:00 19 5 Norte 11 Norte 0 1017.1 -0.4 67
2019-11-28 12:00:00 17.8 4 Este 8 Este 0 1017.8 0.8 75
2019-11-28 11:00:00 15 0 Calma 5 Este 0 1017.9 1.7 92
2019-11-28 10:00:00 11.5 3 Sudeste 5 Sur 0 1017.5 1.6 99
2019-11-28 09:00:00 9.1 0 Calma 5 Nordeste 0 1017 1.3 99
2019-11-28 08:00:00 8.8 3 Norte 5 Norte 0 1016.2 0.7 99
2019-11-28 07:00:00 9.8 4 Sudeste 5 Sudeste 0 1015.9 0.4 99
2019-11-28 06:00:00 10.1 2 Noroeste 5 Noroeste 0 1015.7 0.4 99
2019-11-28 05:00:00 10.4 4 Sudeste 8 Sudeste 0 1015.5 0.2 99
2019-11-28 04:00:00 10.7 2 Nordeste 9 Este 0 1015.5 -0.5 99
2019-11-28 03:00:00 11.1 4 Nordeste 8 Nordeste 0 1015.3 -0.7 99
2019-11-28 02:00:00 10.6 4 Sur 9 Nordeste 0 1015.3 -0.5 98
2019-11-28 01:00:00 10.9 4 Este 8 Este 0 1016 0.4 98
2019-11-28 00:00:00 11.2 3 Nordeste -- -- -- 1016 0.9 98
2019-11-27 23:00:00 11.6 2 Este 8 Este 0 1015.8 1.3 96
2019-11-27 22:00:00 12.5 5 Este 5 Este 0 1015.6 1.7 95
2019-11-27 21:00:00 13.6 3 Norte 15 Oeste 0 1015.1 2 89
2019-11-27 20:00:00 14.8 10 Oeste 13 Oeste 0 1014.5 1.1 87
2019-11-27 19:00:00 15.7 10 Oeste 13 Oeste 0 1013.9 1 84
2019-11-27 18:00:00 17.4 7 Oeste 24 Oeste 0 1013.1 0.1 73
2019-11-27 17:00:00 18.9 13 Oeste 22 Oeste 0 1013.4 0 65
2019-11-27 16:00:00 20 14 Oeste 22 Sudoeste 0 1012.9 -1 59
2019-11-27 15:00:00 20.5 13 Oeste 22 Oeste 0 1013 -1.9 61
2019-11-27 14:00:00 19.1 5 Noroeste 18 Noroeste 0 1013.4 -1.4 72
2019-11-27 06:00:00 14.7 7 Sudoeste 13 Sur 0 1012.4 -0.1 99
2019-11-27 05:00:00 14.8 7 Sur 17 Sur 0 1012.3 -0.4 97
2019-11-27 04:00:00 15.1 10 Sur 13 Sur 0 1012.5 -0.6 96
2019-11-27 03:00:00 15.3 9 Sur 18 Sudoeste 0.1 1012.5 -0.7 96
2019-11-27 02:00:00 16 11 Sudoeste 28 Sudoeste 0.2 1012.7 -0.4 97
2019-11-27 01:00:00 16.1 19 Sur 32 Sur 0.5 1013.1 -0.3 97
2019-11-27 00:00:00 16.6 19 Sudoeste 30 Sur 0.1 1013.2 0 95
2019-11-26 23:00:00 16.2 16 Sur 24 Sur 0 1013.1 -0.1 98
2019-11-26 22:00:00 15.7 12 Sur 17 Sur 0 1013.4 0.4 98
2019-11-26 21:00:00 15.6 13 Sur 18 Sur 0 1013.2 0.6 98
2019-11-26 20:00:00 16 9 Sur 17 Sur 0 1013.2 0.6 96
2019-11-26 19:00:00 16.9 14 Sudoeste 21 Sudoeste 0 1013 0.4 93
2019-11-26 18:00:00 17.9 14 Sudoeste 28 Sudoeste 0 1012.6 0.3 89
2019-11-26 17:00:00 18.7 17 Sudoeste 28 Sudoeste 0 1012.6 -0.6 85
2019-11-26 16:00:00 19.4 21 Sudoeste 28 Sudoeste 0 1012.6 -1.5 86
2019-11-26 15:00:00 19.7 11 Sudoeste 21 Sudoeste 0 1012.3 -2.3 84
2019-11-26 14:00:00 18.6 14 Sudoeste 21 Sudoeste 0 1013.2 -1.7 92
2019-11-26 13:00:00 17.4 12 Sudoeste 18 Oeste 0.8 1014.1 -0.8 97
2019-11-26 12:00:00 17.5 8 Sur 13 Sudoeste 0.1 1014.6 -0.2 96
2019-11-26 11:00:00 16.9 4 Sur 8 Sur 0 1014.9 0.4 95
2019-11-26 10:00:00 15.2 4 Sudeste 5 Sudeste 0 1014.9 0.5 99
2019-11-26 09:00:00 14 3 Este 9 Sur 0 1014.8 0.4 99
2019-11-26 08:00:00 14 4 Sudeste 8 Nordeste 0 1014.5 -0.1 99
2019-11-26 07:00:00 14 5 Sur 9 Sudeste 0 1014.4 -0.7 99
2019-11-26 06:00:00 14.3 5 Sudeste 9 Sudeste 0 1014.4 -1 99
2019-11-26 05:00:00 14.6 5 Este 8 Este 0 1014.6 -1 99
2019-11-26 04:00:00 14.9 4 Nordeste 8 Noroeste 0 1015.1 -0.9 99
2019-11-26 03:00:00 15.2 3 Oeste 13 Oeste 0 1015.4 -0.7 99
2019-11-26 02:00:00 15.8 7 Noroeste 13 Oeste 0 1015.6 -0.3 97
2019-11-26 01:00:00 16.4 6 Oeste 13 Oeste 0 1016 -0.1 97
2019-11-26 00:00:00 16.7 6 Oeste 15 Sudoeste 0 1016.1 0.2 97
2019-11-25 23:00:00 16.9 10 Sudoeste 17 Oeste 0 1015.9 0.4 97
2019-11-25 22:00:00 17.2 11 Sudoeste 18 Sudoeste 0 1016.1 0.4 97
2019-11-25 21:00:00 17.2 13 Sudoeste 22 Sudoeste 0 1015.9 0.6 96
2019-11-25 20:00:00 17.3 16 Sudoeste 24 Sudoeste 0 1015.5 0.1 94
2019-11-25 19:00:00 17 14 Sudoeste 28 Sudoeste 0 1015.7 0.5 95
2019-11-25 18:00:00 17.4 22 Sudoeste 32 Sudoeste 0 1015.3 -0.2 90
2019-11-25 17:00:00 18.2 23 Sudoeste 35 Sudoeste 0 1015.4 -0.3 84
2019-11-25 16:00:00 19 23 Sudoeste 39 Sudoeste 0 1015.2 -1.2 80
2019-11-25 15:00:00 19.2 26 Sudoeste 37 Sudoeste 0 1015.5 -1.4 79
2019-11-25 14:00:00 19.9 24 Sudoeste 35 Sudoeste 0 1015.7 -1.4 75
2019-11-25 13:00:00 19.3 23 Sudoeste 33 Sudoeste 0 1016.4 -0.6 76
2019-11-25 12:00:00 19 22 Sudoeste 30 Sudoeste 0 1016.9 0.3 79
2019-11-25 11:00:00 16.6 17 Sur 22 Sur 0 1017.1 0.8 89
2019-11-25 10:00:00 14 3 Sudeste 9 Sudeste 0 1017 0.9 93
2019-11-25 09:00:00 12.8 5 Sudeste 8 Sudeste 0 1016.6 0.9 95
2019-11-25 08:00:00 12.2 8 Sudeste -- -- 0 1016.3 0.5 96
2019-11-25 07:00:00 11.8 5 Este 8 Este 0 1016.1 0 97
2019-11-25 06:00:00 11.2 4 Este 9 Este 0 1015.7 -0.5 96
2019-11-25 05:00:00 10.5 5 Este 8 Este 0 1015.8 -0.6 97
2019-11-25 04:00:00 9.4 5 Nordeste 8 Nordeste 0 1016.1 -1 97
2019-11-25 03:00:00 9.7 4 Este 8 Este 0 1016.2 -0.9 97
2019-11-25 02:00:00 8.7 6 Este 9 Este 0 1016.4 -0.8 97
2019-11-25 01:00:00 8.4 4 Nordeste 8 Este 0 1017.1 0.1 96
2019-11-25 00:00:00 8.6 5 Este 8 Este 0 1017.1 0.2 96
2019-11-24 23:00:00 9.3 6 Nordeste 9 Nordeste 0 1017.2 0.4 95
2019-11-24 22:00:00 10 2 Nordeste 5 Nordeste 0 1017 0.5 92
2019-11-24 21:00:00 11.4 5 Sur 9 Sur 0 1016.9 1.2 88
2019-11-24 20:00:00 12.5 5 Sur 11 Sudoeste 0 1016.8 1.4 83
2019-11-24 19:00:00 12.6 7 Sudoeste 13 Oeste 0 1016.5 1.1 80
2019-11-24 18:00:00 14.9 9 Oeste 21 Oeste 0 1015.7 0.2 68
2019-11-24 17:00:00 16.4 15 Oeste 26 Oeste 0 1015.4 -0.4 58
2019-11-24 16:00:00 17 15 Oeste 26 Oeste 0 1015.4 -1.2 54
2019-11-24 15:00:00 17.3 15 Oeste 24 Oeste 0 1015.5 -1.8 59
2019-11-24 14:00:00 16.2 7 Oeste 18 Noroeste 0 1015.8 -1.3 66
2019-11-24 13:00:00 15.1 11 Noroeste 18 Noroeste 0 1016.6 -0.5 70
2019-11-24 12:00:00 13.7 5 Sudoeste 9 Oeste 0 1017.3 0.8 74
2019-11-24 11:00:00 11.8 5 Sur 9 Sur 0 1017.1 1.2 82
2019-11-24 10:00:00 9.1 0 Calma 8 Nordeste 0 1017.1 2.2 92
2019-11-24 09:00:00 5.8 6 Este 11 Este 0 1016.5 2.1 98
2019-11-24 08:00:00 4.8 3 Este 11 Noroeste 0 1015.9 2 96
2019-11-24 07:00:00 5 0 Calma 8 Nordeste 0 1014.9 0.9 97
2019-11-24 06:00:00 5.2 4 Este 8 Este 0 1014.4 0.3 97
2019-11-24 05:00:00 5.7 6 Nordeste 8 Nordeste 0 1013.9 -0.1 96
2019-11-24 04:00:00 6.4 5 Este 8 Este 0 1014 0.1 96
2019-11-24 03:00:00 7.1 4 Este -- -- 0 1014.1 0.3 95
2019-11-24 02:00:00 7.8 2 Sudeste 8 Noroeste 0 1014 0.4 94
2019-11-24 01:00:00 8.7 0 Calma 11 Oeste 0 1013.9 0.8 89
2019-11-24 00:00:00 10 6 Noroeste 17 Oeste 0 1013.8 1.4 84
2019-11-23 23:00:00 11.2 11 Oeste 17 Oeste 0 1013.6 1.8 83
2019-11-23 22:00:00 11.6 10 Oeste 17 Oeste 0 1013.1 2.1 88
2019-11-23 21:00:00 12.6 11 Oeste 17 Oeste 0 1012.4 2.3 86
2019-11-23 20:00:00 12.8 12 Oeste 21 Oeste 0 1011.8 2.6 83
2019-11-23 19:00:00 13.5 14 Oeste 22 Oeste 0 1011 2.4 81
2019-11-23 18:00:00 14.9 14 Oeste 32 Oeste 0 1010.1 1.5 74
2019-11-23 17:00:00 16.4 21 Oeste 35 Oeste 0 1009.2 0.5 63
2019-11-23 16:00:00 16.9 20 Oeste 35 Oeste 0 1008.6 -0.2 61
2019-11-23 15:00:00 17.1 21 Oeste 39 Oeste 0 1008.6 -0.3 61
2019-11-23 14:00:00 16.9 22 Oeste 35 Oeste 0 1008.7 0.7 64
2019-11-23 13:00:00 16.4 21 Oeste 37 Oeste 0 1008.8 1.6 69
2019-11-23 12:00:00 15.8 23 Oeste 37 Oeste 0 1008.9 2.7 71
2019-11-23 11:00:00 14.9 24 Oeste 37 Oeste 0 1008 3.2 75
2019-11-23 10:00:00 14.5 20 Oeste 33 Oeste 0 1007.2 3.1 81
2019-11-23 09:00:00 13 15 Oeste 30 Oeste 0 1006.2 2.7 86
2019-11-23 08:00:00 12.8 19 Oeste 30 Oeste 0 1004.8 2 87
2019-11-23 07:00:00 12.8 14 Oeste 35 Noroeste 0 1004.1 1.6 89
2019-11-23 06:00:00 13.3 28 Oeste 46 Oeste 1.2 1003.5 1.5 91
2019-11-23 05:00:00 14.3 16 Oeste 30 Sudoeste 0 1002.8 0.8 83
2019-11-23 04:00:00 13.6 14 Oeste 26 Sudoeste 0 1002.5 0.9 85
2019-11-23 03:00:00 14.2 15 Sudoeste 22 Sudoeste 0 1002 0.3 88
2019-11-23 02:00:00 14.5 16 Sudoeste 24 Sudoeste 0 1002 0.8 90
2019-11-23 01:00:00 14.6 17 Sudoeste 30 Sudoeste 0 1001.6 0.7 86
2019-11-23 00:00:00 15.2 15 Sudoeste 26 Sudoeste 0 1001.7 1.6 90
2019-11-22 23:00:00 14.7 14 Sudoeste 21 Sudoeste 0 1001.2 2.1 90
2019-11-22 22:00:00 15 11 Sudoeste 33 Noroeste 0 1000.9 3.1 88
2019-11-22 21:00:00 15.3 16 Oeste 30 Oeste 0 1000.1 2.4 91
2019-11-22 20:00:00 16.4 22 Oeste 61 Oeste 6.6 999.1 1.4 96
2019-11-22 19:00:00 17.6 33 Sudoeste 58 Sudoeste 0.9 997.8 0.3 96
2019-11-22 18:00:00 18.1 39 Sudoeste 63 Sudoeste 0 997.7 -0.4 90
2019-11-22 17:00:00 17.9 44 Sudoeste 67 Sur 0 997.7 -1.1 92
2019-11-22 16:00:00 18 43 Sudoeste 65 Sudoeste 0.2 997.5 -2.7 92
2019-11-22 15:00:00 18.7 42 Sudoeste 59 Sudoeste 0.8 998.1 -3.3 91
2019-11-22 14:00:00 17.3 37 Sudoeste 52 Sudoeste 0.4 998.8 -3.5 97
2019-11-22 13:00:00 17.3 30 Sudoeste 46 Sur 2.1 1000.2 -1.6 97
2019-11-22 12:00:00 17.3 29 Sur 42 Sur 1.3 1001.4 -0.8 97
2019-11-22 11:00:00 16.9 24 Sur 30 Sur 0.3 1002.3 0 97
2019-11-22 10:00:00 16.5 16 Sur 21 Sur 0 1001.8 -1.1 98
2019-11-22 09:00:00 16.1 16 Sudoeste 26 Sudoeste 0 1002.2 -0.5 98
2019-11-22 08:00:00 15.7 17 Sudoeste 28 Sudoeste 0.4 1002.3 -1 98
2019-11-22 07:00:00 15.9 17 Oeste 33 Sudoeste 8.2 1002.9 -1.1 99
2019-11-22 06:00:00 15.6 12 Sur 17 Sur 0.3 1002.7 -1.5 99
2019-11-22 05:00:00 15.6 9 Sur 28 Sudoeste 2.8 1003.3 -1.3 99
2019-11-22 04:00:00 15.7 14 Sudoeste 22 Sudoeste 6.4 1004 -1.1 99
2019-11-22 03:00:00 15.5 13 Sudoeste 18 Sudoeste 1.1 1004.2 -1.5 99
2019-11-22 02:00:00 15.2 9 Sudoeste 15 Sudoeste 0.8 1004.6 -1.6 99
2019-11-22 01:00:00 15.1 12 Sur 21 Sur 0 1005.1 -1.4 98
2019-11-22 00:00:00 14.8 12 Sur 18 Sur 0.1 1005.7 -0.7 98
2019-11-21 23:00:00 14.7 10 Sur 21 Sur 0 1006.2 -0.2 97
2019-11-21 22:00:00 14.5 13 Sur 18 Sur 0.2 1006.5 0.5 97
2019-11-21 21:00:00 14.7 8 Sur 21 Sur 0 1006.4 0.8 96
2019-11-21 20:00:00 14.8 12 Sur 17 Sur 0 1006.4 0.8 97
2019-11-21 19:00:00 15 13 Sur 18 Sur 0 1006 0.5 96
2019-11-21 18:00:00 15.2 13 Sur 18 Sur 0 1005.6 -0.3 95
2019-11-21 17:00:00 15.4 12 Sur 21 Sur 0 1005.6 -0.7 94
2019-11-21 16:00:00 15.4 14 Sur 21 Sur 0.1 1005.5 -1.2 95
2019-11-21 15:00:00 15.3 16 Sur 26 Sur 3 1005.9 -1.6 96
2019-11-21 14:00:00 16.1 19 Sur 28 Sur 1.1 1006.3 -1.3 93
2019-11-21 13:00:00 17.4 15 Sur 26 Sur 0 1006.7 -0.8 86
2019-11-21 12:00:00 16.4 18 Sur 26 Sur 0 1007.5 0 90
2019-11-21 11:00:00 15.1 12 Sur 17 Sur 0.1 1007.6 0.3 97
2019-11-21 10:00:00 13.5 0 Calma 5 Sur 0 1007.5 0.7 99
2019-11-21 09:00:00 12 4 Sudeste 5 Sudeste 0 1007.5 0.5 99
2019-11-21 08:00:00 11.7 0 Calma 8 Sudeste 0 1007.3 0.3 98
2019-11-21 07:00:00 12.7 6 Sudeste 13 Sudeste 0 1006.8 -0.9 98
2019-11-21 06:00:00 13.1 9 Sur 18 Sur 0 1007 -0.8 98
2019-11-21 05:00:00 11.9 4 Sudoeste 11 Sur 0 1007 -1.3 98
2019-11-21 04:00:00 12.2 8 Sur 15 Sur 0 1007.7 -1 98
2019-11-21 03:00:00 12.3 8 Sur 11 Sur 0 1007.8 -0.9 98
2019-11-21 02:00:00 11.9 8 Sur 17 Sur 0 1008.3 -0.6 97
2019-11-21 01:00:00 11.8 13 Sur 18 Sur 2 1008.7 -0.1 97
2019-11-21 00:00:00 11.1 7 Sur 11 Sudeste 0.1 1008.7 0.3 96
2019-11-20 23:00:00 10.1 4 Sudeste 8 Sur 0 1008.9 0.6 97
2019-11-20 22:00:00 10.2 5 Sur 11 Sur 0 1008.8 1.3 97
2019-11-20 21:00:00 10.1 5 Sur 8 Sur 0 1008.4 1.2 96
2019-11-20 20:00:00 11.1 -- -- -- -- 0 1008.3 1.1 94
2019-11-20 19:00:00 12.4 10 Sur 15 Sur 0 1007.5 0.6 91
2019-11-20 18:00:00 13.5 10 Sur 26 Sur 0 1007.2 0.4 87
2019-11-20 17:00:00 13.9 20 Sur 41 Sur 0 1007.2 0 84
2019-11-20 16:00:00 14.1 28 Sur 46 Sur 0 1006.9 -1 83
2019-11-20 15:00:00 13.9 26 Sur 46 Sur 1.8 1006.8 -2.3 92
2019-11-20 14:00:00 14.7 30 Sur 48 Sur 0.1 1007.2 -2.5 85
2019-11-20 13:00:00 14.4 19 Sudeste 37 Sur 0 1007.9 -1.5 85
2019-11-20 12:00:00 13.1 16 Sur 30 Sur 0 1009.1 -0.7 91
2019-11-20 11:00:00 11.8 9 Sur 24 Sur 0.2 1009.7 0.1 94
2019-11-20 10:00:00 10.6 14 Sudeste 24 Sudeste 0.5 1009.4 -0.4 95
2019-11-20 09:00:00 8.5 4 Este 9 Este 0 1009.8 -0.2 95
2019-11-20 08:00:00 7.2 5 Este 9 Sudeste 0.1 1009.6 -0.8 96
2019-11-20 07:00:00 5.6 7 Este 9 Este 0 1009.8 -1.2 96
2019-11-20 06:00:00 4.3 6 Este 11 Este 0 1010 -1.5 97
2019-11-20 05:00:00 3.2 8 Nordeste 9 Nordeste 0 1010.4 -1.5 95
2019-11-20 04:00:00 2.8 5 Nordeste -- -- 0 1011 -1.3 95
2019-11-20 03:00:00 2.8 0 Calma 8 Nordeste 0 1011.5 -0.9 95
2019-11-20 02:00:00 3.7 3 Este 5 Nordeste 0 1011.9 -0.9 94
2019-11-20 01:00:00 4.3 0 Calma -- -- 0 1012.3 -0.6 90
2019-11-20 00:00:00 5.3 -- -- -- -- 0 1012.4 -0.7 87
2019-11-19 23:00:00 6.3 4 Norte -- -- 0 1012.8 -0.6 88
2019-11-19 22:00:00 8 3 Norte -- -- 0 1012.9 -0.1 83
2019-11-19 21:00:00 10.7 4 Nordeste 11 Oeste 0 1013.1 0.3 75
2019-11-19 20:00:00 12.7 8 Oeste 13 Sudoeste 0 1013.4 0.6 65
2019-11-19 19:00:00 13.7 8 Sudoeste 15 Oeste 0 1013 -0.1 58
2019-11-19 18:00:00 15 10 Sudoeste 21 Sudoeste 0 1012.8 -0.7 54
2019-11-19 17:00:00 16.1 7 Sudoeste 15 Sudoeste 0 1012.8 -1.3 50
2019-11-19 16:00:00 16.8 11 Oeste 18 Sudoeste 0 1013.1 -1.7 47
2019-11-19 15:00:00 17.5 6 Sudoeste 21 Sudoeste 0 1013.5 -2.3 46
2019-11-19 14:00:00 17 7 Oeste 17 Sudoeste 0 1014.1 -2.1 49
2019-11-19 13:00:00 16.4 9 Sudoeste 17 Sudoeste 0 1014.8 -1.5 60
2019-11-19 12:00:00 15.1 9 Sudoeste 17 Sudoeste 0 1015.8 -0.4 70
2019-11-19 11:00:00 13.5 5 Sudoeste 9 Sur 0 1016.2 0.5 81
2019-11-19 10:00:00 9.5 0 Calma 5 Norte 0 1016.3 0.9 90
2019-11-19 09:00:00 5.2 4 Norte 9 Este 0 1016.2 0.9 97
2019-11-19 08:00:00 4 7 Este 11 Este 0 1015.7 0.6 97
2019-11-19 07:00:00 4.8 7 Este 11 Este 0 1015.4 0.3 97
2019-11-19 06:00:00 4.6 6 Nordeste 9 Nordeste 0 1015.3 0.1 97
2019-11-19 05:00:00 4.8 6 Este 11 Este 0 1015.1 -0.2 96
2019-11-19 04:00:00 4.8 6 Nordeste 9 Este 0 1015.1 -0.5 95
2019-11-19 03:00:00 5.7 8 Este 11 Este 0 1015.2 -0.7 97
2019-11-19 02:00:00 5.2 5 Norte 11 Nordeste 0 1015.3 -0.7 96
2019-11-19 01:00:00 5.4 4 Nordeste 11 Nordeste 0 1015.6 0.1 95
2019-11-19 00:00:00 5.6 8 Nordeste 11 Nordeste 0 1015.9 0.6 94
2019-11-18 23:00:00 6.3 4 Nordeste 5 Nordeste 0 1016 1.1 94
2019-11-18 22:00:00 6.8 4 Nordeste 9 Nordeste 0 1015.5 1.2 91
2019-11-18 21:00:00 8.3 4 Sur 8 Sudoeste 0 1015.3 1.6 87
2019-11-18 20:00:00 9.6 4 Sur 9 Sur 0 1014.9 1.2 83
2019-11-18 19:00:00 11.9 5 Sudoeste 13 Sudoeste 0 1014.3 1 73
2019-11-18 18:00:00 14.7 12 Oeste 18 Sudoeste 0 1013.7 0.4 60
2019-11-18 17:00:00 16.2 14 Sudoeste 21 Sudoeste 0 1013.7 0.5 56
2019-11-18 16:00:00 16.6 11 Oeste 18 Norte 0 1013.3 -0.6 54
2019-11-18 15:00:00 16.4 10 Norte 26 Norte 0 1013.3 -1 50
2019-11-18 14:00:00 15.5 19 Norte 33 Noroeste 0 1013.2 -1 52
2019-11-18 13:00:00 15 15 Noroeste 30 Noroeste 0 1013.9 0.2 56
2019-11-18 12:00:00 13.7 18 Noroeste 30 Noroeste 0 1014.3 1.1 62
2019-11-18 11:00:00 12.3 19 Noroeste 30 Oeste 0 1014.2 1.5 72
2019-11-18 10:00:00 9.9 19 Noroeste 26 Noroeste 0 1013.7 1.6 83
2019-11-18 09:00:00 7.6 13 Noroeste 18 Noroeste 0 1013.2 2.2 88
2019-11-18 08:00:00 6.8 12 Noroeste 22 Noroeste 0 1012.7 2 89
2019-11-18 07:00:00 8.1 17 Oeste 33 Noroeste 0 1012.1 1.6 84
2019-11-18 06:00:00 8.9 25 Noroeste 41 Oeste 0 1011 0.7 80
2019-11-18 05:00:00 10.8 31 Noroeste 46 Noroeste 0 1010.7 0.1 70
2019-11-18 04:00:00 12.7 23 Oeste 50 Oeste 0 1010.5 -0.8 78
2019-11-18 03:00:00 15.1 30 Oeste 50 Sudoeste 0 1010.3 -1.7 92
2019-11-18 02:00:00 15.4 36 Sudoeste 58 Sudoeste 0 1010.6 -2.1 88
2019-11-18 01:00:00 15.3 24 Sudoeste 37 Sudoeste 0 1011.3 -2.1 89
2019-11-18 00:00:00 15.3 20 Sudoeste 32 Sudoeste 0 1012 -1.3 89
2019-11-17 23:00:00 15.2 20 Sudoeste 30 Sudoeste 0 1012.7 -1 91
2019-11-17 22:00:00 14.7 17 Sudoeste 26 Sudoeste 0 1013.4 -0.4 92
2019-11-17 21:00:00 14.7 19 Sudoeste 32 Sudoeste 0 1013.3 -1 92
2019-11-17 20:00:00 15.3 19 Sudoeste 30 Sudoeste 0 1013.7 -0.6 90
2019-11-17 19:00:00 15.6 21 Sudoeste 32 Sudoeste 0 1013.8 -1 88
2019-11-17 18:00:00 16.1 19 Sudoeste 33 Sudoeste 0 1014.3 -0.9 87
2019-11-17 17:00:00 16.5 22 Sudoeste 35 Sudoeste 0 1014.3 -2 86
2019-11-17 16:00:00 16.8 17 Oeste 30 Sudoeste 0 1014.8 -2.4 83
2019-11-17 15:00:00 14.4 4 Sur 11 Sudeste 0 1015.2 -2.8 97
2019-11-17 14:00:00 11.8 8 Este 13 Este 1.1 1016.3 -2.2 97
2019-11-17 13:00:00 11.6 5 Sur 15 Sudeste 1.5 1017.2 -1.3 91
2019-11-17 12:00:00 11 9 Sudeste 13 Sudeste 0 1018 0 84
2019-11-17 11:00:00 8.7 3 Sudeste 5 Sudeste 0 1018.5 0.8 88
2019-11-17 10:00:00 7.1 0 Calma 9 Sudoeste 0 1018.5 1.2 89
2019-11-17 09:00:00 5.6 4 Sudeste 9 Este 0 1018 0.8 91
2019-11-17 08:00:00 4.1 5 Nordeste -- -- 0 1017.7 0.5 92
2019-11-17 07:00:00 2.6 6 Este 8 Este 0 1017.3 -0.3 94
2019-11-17 06:00:00 1.3 3 Este 8 Nordeste 0 1017.2 -0.4 93
2019-11-17 05:00:00 1.4 5 Este 9 Este 0 1017.2 -0.3 92
2019-11-17 04:00:00 1.8 5 Nordeste 9 Este 0 1017.6 -0.1 92
2019-11-17 03:00:00 2.1 7 Nordeste 9 Nordeste 0 1017.6 0 90
2019-11-17 02:00:00 2.6 4 Nordeste 8 Norte 0 1017.5 -0.2 89
2019-11-17 01:00:00 2.9 5 Nordeste 8 Nordeste 0 1017.7 0.1 87
2019-11-17 00:00:00 3.5 4 Nordeste 9 Nordeste 0 1017.6 0.5 86
2019-11-16 23:00:00 4.4 7 Este 9 Este 0 1017.7 1 83
2019-11-16 22:00:00 5.2 2 Este -- -- 0 1017.6 1.3 79
2019-11-16 21:00:00 7.2 0 Calma 9 Sur 0 1017.1 1.4 73
2019-11-16 20:00:00 8.8 -- -- -- -- 0 1016.7 1.2 68
2019-11-16 19:00:00 10.2 9 Sudoeste 15 Sudoeste 0 1016.3 1.2 62
2019-11-16 18:00:00 13.1 10 Sudoeste 22 Oeste 0 1015.7 0.8 52
2019-11-16 17:00:00 14.4 13 Oeste 39 Oeste 0 1015.5 0.7 46
2019-11-16 16:00:00 14.8 12 Oeste 28 Noroeste 0 1015.1 -0.1 45
2019-11-16 15:00:00 14.4 12 Noroeste 22 Norte 0 1014.9 -0.8 42
2019-11-16 14:00:00 13.7 9 Noroeste 18 Noroeste 0 1014.8 -0.5 46
2019-11-16 13:00:00 12.6 7 Norte 17 Norte 0 1015.2 0.5 49
2019-11-16 12:00:00 11 8 Norte 17 Noroeste 0 1015.7 2.3 55
2019-11-16 11:00:00 8.5 7 Norte 18 Noroeste 0 1015.3 2.7 69
2019-11-16 10:00:00 6.1 4 Oeste 11 Oeste 0 1014.7 3.2 80
2019-11-16 09:00:00 1.7 0 Calma 9 Oeste 0 1013.4 2.5 93
2019-11-16 08:00:00 0.8 0 Calma 5 Este 0 1012.6 2.3 92
2019-11-16 07:00:00 1.4 0 Calma 5 Norte 0 1011.5 1.7 91
2019-11-16 06:00:00 2.4 4 Norte 9 Este 0 1010.9 1.5 86
2019-11-16 05:00:00 3.7 5 Nordeste 17 Noroeste 0 1010.3 0.9 81
2019-11-16 04:00:00 5.4 15 Noroeste 22 Oeste 0 1009.8 0.8 75
2019-11-16 03:00:00 5.4 10 Oeste 21 Oeste 0 1009.4 0.5 73
2019-11-16 02:00:00 6.4 12 Oeste 32 Noroeste 0 1009.4 0.8 67
2019-11-16 01:00:00 7.1 15 Noroeste 24 Noroeste 0 1009 1 64
2019-11-16 00:00:00 7.7 15 Noroeste 28 Oeste 0 1008.9 1.4 62
2019-11-15 23:00:00 8.4 17 Oeste 26 Oeste 0 1008.6 1.5 59
2019-11-15 22:00:00 9.1 14 Oeste 24 Oeste 0 1008 1.3 52
2019-11-15 21:00:00 9.9 13 Oeste 22 Oeste 0 1007.5 1.3 50
2019-11-15 20:00:00 10.6 15 Oeste 26 Noroeste 0 1007.1 1 47
2019-11-15 19:00:00 12.2 12 Oeste 33 Oeste 0 1006.7 1 44
2019-11-15 18:00:00 13.5 20 Oeste 39 Oeste 0 1006.2 0.2 45
2019-11-15 17:00:00 14.2 28 Oeste 45 Oeste 0 1006.1 -0.4 45
2019-11-15 16:00:00 15.4 23 Oeste 42 Oeste 0 1005.7 -1.8 41
2019-11-15 15:00:00 15.2 24 Noroeste 39 Noroeste 0 1006 -2.3 39
2019-11-15 14:00:00 14.6 23 Oeste 39 Sudoeste 0 1006.5 -2.1 43
2019-11-15 13:00:00 13.5 23 Oeste 37 Noroeste 0 1007.5 -1.4 44
2019-11-15 12:00:00 13.2 27 Noroeste 41 Noroeste 0 1008.3 -0.2 47
2019-11-15 11:00:00 11.7 23 Noroeste 37 Noroeste 0 1008.6 0.7 58
2019-11-15 10:00:00 10.9 21 Noroeste 33 Oeste 0 1008.9 1.4 65
2019-11-15 09:00:00 9.3 20 Oeste 32 Noroeste 0 1008.5 0.8 68
2019-11-15 08:00:00 9.2 17 Noroeste 32 Oeste 0 1007.9 0.2 70
2019-11-15 07:00:00 9.5 18 Noroeste 37 Oeste 0 1007.5 -0.6 70
2019-11-15 06:00:00 9.7 15 Oeste 24 Oeste 0 1007.7 -0.6 71
2019-11-15 05:00:00 8.9 10 Oeste 22 Oeste 0 1007.7 -1 75
2019-11-15 04:00:00 8.8 10 Oeste 17 Oeste 0 1008.1 -0.7 76
2019-11-15 03:00:00 9.8 12 Oeste 18 Oeste 0 1008.3 -0.5 79
2019-11-15 02:00:00 10.1 9 Oeste 30 Oeste 0 1008.7 -0.3 79
2019-11-15 01:00:00 10.7 17 Oeste 30 Oeste 0 1008.8 -0.2 77
2019-11-15 00:00:00 10.7 15 Oeste 28 Oeste 0 1008.8 -0.1 78
2019-11-14 23:00:00 10.7 10 Oeste 26 Oeste 0 1009 0.1 76
2019-11-14 22:00:00 10.9 14 Oeste 22 Oeste 0 1009 0.5 77
2019-11-14 21:00:00 11 14 Oeste 30 Oeste 0 1008.9 0.7 73
2019-11-14 20:00:00 11.8 21 Oeste 37 Noroeste 0 1008.9 1.1 69
2019-11-14 19:00:00 12.4 11 Oeste 32 Oeste 0 1008.5 0.8 69
2019-11-14 18:00:00 13.5 16 Oeste 30 Noroeste 0 1008.2 0.3 66
2019-11-14 17:00:00 14 15 Oeste 32 Oeste 0 1007.8 -0.5 73
2019-11-14 16:00:00 14.5 21 Oeste 37 Oeste 0 1007.7 -0.9 68
2019-11-14 15:00:00 13.7 24 Noroeste 41 Noroeste 0.3 1007.9 -1.9 72
2019-11-14 14:00:00 14.5 27 Oeste 45 Oeste 0.1 1008.3 -1.6 75
2019-11-14 13:00:00 14.9 24 Oeste 42 Oeste 0 1008.6 -- 80
2019-11-14 12:00:00 14.3 35 Oeste 54 Sudoeste 0.4 1009.8 -1 84
2019-11-14 11:00:00 15.9 21 Sudoeste 33 Sudoeste 0 1009.9 -1.1 74
2019-11-14 10:00:00 -- 14 Sudoeste 22 Sudoeste 0 -- -- 77
2019-11-14 09:00:00 12.6 13 Sudoeste 21 Sudoeste 0 1010.8 -0.5 82
2019-11-14 08:00:00 9.5 8 Sudoeste 11 Sur 0 1011 -0.6 97
2019-11-14 07:00:00 8.4 4 Sudoeste 9 Oeste 0 1011.4 -0.6 94
2019-11-14 06:00:00 10.4 6 Sudoeste 18 Oeste 0 1011.3 -1.3 90
2019-11-14 05:00:00 10.9 12 Oeste 21 Noroeste 0 1011.6 -1.4 88
2019-11-14 04:00:00 11.8 17 Noroeste 24 Oeste 0 1012 -1.1 87
2019-11-14 03:00:00 13 17 Oeste 28 Oeste 0 1012.6 -0.6 91
2019-11-14 02:00:00 13.6 9 Oeste 18 Oeste 0 1013 -1.1 90
2019-11-14 01:00:00 14.3 10 Oeste 17 Oeste 0 1013.1 -0.3 89
2019-11-14 00:00:00 14.5 5 Sur 18 Sudoeste 0 1013.2 -0.2 93
2019-11-13 23:00:00 15.8 13 Sudoeste 18 Sudoeste 0 1014.1 0.4 90
2019-11-13 22:00:00 16 11 Sudoeste 21 Sudoeste 0 1013.4 -0.1 88
2019-11-13 21:00:00 16.6 15 Sudoeste 24 Sudoeste 0 1013.4 0.3 86
2019-11-13 20:00:00 17.2 11 Oeste 22 Sudoeste 0 1013.7 1 85
2019-11-13 19:00:00 16.9 14 Sudoeste 28 Sudoeste -- 1013.5 1 88
2019-11-13 18:00:00 18.3 22 Sudoeste 33 Oeste 0 1013.1 0.3 80
2019-11-13 17:00:00 19.9 24 Sudoeste 33 Sudoeste 0 1012.7 -0.7 70
2019-11-13 16:00:00 20.9 22 Oeste 33 Sudoeste 0 1012.5 -1.4 65
2019-11-13 15:00:00 20.9 23 Oeste 39 Sudoeste 0 1012.8 -1.6 65
2019-11-13 14:00:00 20.1 27 Oeste 39 Sudoeste 0 1013.4 -0.9 71
2019-11-13 13:00:00 -1.1 28 Sudoeste 42 Sudoeste 0 1013.9 0 78
2019-11-13 12:00:00 19 28 Oeste 41 Sudoeste 0 1014.4 1 69
2019-11-13 11:00:00 17.9 24 Sudoeste 39 Oeste 0 1014.3 1.1 77
2019-11-13 10:00:00 16.9 22 Sudoeste 32 Oeste 0 1013.9 0.9 83
2019-11-13 09:00:00 15.7 12 Sudoeste 18 Sudoeste 0 1013.4 0.4 89
2019-11-13 08:00:00 15.2 10 Sudoeste 15 Sudoeste 0 1013.2 0 91
2019-11-13 07:00:00 15 11 Sudoeste 17 Sudoeste 0 1013 -0.4 92
2019-11-13 06:00:00 13.9 7 Sur 9 Sur 0 1013 -0.9 92
2019-11-13 05:00:00 13.9 7 Sudoeste 13 Sudoeste 0 1013.2 -1.1 90
2019-11-13 04:00:00 13.6 10 Sudoeste 15 Sudoeste 0 1013.4 -1.2 88
2019-11-13 03:00:00 11.7 5 Sur 9 Sudeste 0 1013.9 -0.5 89
2019-11-13 02:00:00 10.4 3 Sudoeste 9 Oeste 0 1014.3 -0.4 88
2019-11-13 01:00:00 10.6 7 Oeste 15 Oeste 0 1014.6 0.3 87
2019-11-13 00:00:00 12.3 4 Oeste 18 Noroeste 0 1014.4 0.2 78
2019-11-12 23:00:00 12.8 11 Noroeste 22 Oeste 0 1014.7 0.8 73
2019-11-12 22:00:00 13.8 17 Oeste 24 Oeste 0 1014.3 0.7 65
2019-11-12 21:00:00 14.4 13 Oeste 21 Oeste 0 1014.2 1.1 68
2019-11-12 20:00:00 15.1 14 Oeste 32 Oeste 0 1013.9 0.8 67
2019-11-12 19:00:00 15.6 23 Sudoeste 32 Sudoeste 0 1013.6 0.6 67
2019-11-12 18:00:00 17.8 18 Oeste 28 Sudoeste 0 1013.1 -0.6 48
2019-11-12 17:00:00 19 20 Oeste 30 Oeste 0 1013.1 -0.9 47
2019-11-12 16:00:00 19.9 18 Oeste 30 Sudoeste 0 1013 -1.8 48
2019-11-12 15:00:00 19.6 18 Norte 30 Norte 0 1013.7 -1.7 44
2019-11-12 14:00:00 18.8 16 Noroeste 28 Noroeste 0 1014 -1.1 53
2019-11-12 13:00:00 17.7 13 Norte 22 Norte 0 1014.8 -0.5 62
2019-11-12 12:00:00 16.5 12 Norte 17 Norte 0 1015.4 0.7 68
2019-11-12 11:00:00 14 11 Norte 17 Norte 0 1015.1 0.8 81
2019-11-12 10:00:00 11.6 7 Norte 13 Noroeste 0 1015.3 1.5 91
2019-11-12 09:00:00 9.4 3 Nordeste 13 Noroeste 0 1014.7 1.3 97
2019-11-12 08:00:00 8.4 4 Noroeste 9 Noroeste 0 1014.3 0.8 96
2019-11-12 07:00:00 8.6 7 Norte 13 Noroeste 0 1013.8 -0.4 96
2019-11-12 06:00:00 9 7 Oeste 11 Oeste 0 1013.4 -0.6 96
2019-11-12 05:00:00 9.6 0 Calma 4 Nordeste 0 1013.5 -0.4 95
2019-11-12 04:00:00 9.9 5 Nordeste 11 Norte 0 1014.2 -0.2 95
2019-11-12 03:00:00 11.1 10 Noroeste 15 Noroeste 0 1014 -0.1 92
2019-11-12 02:00:00 12.2 3 Noroeste 18 Oeste 0 1013.9 -0.7 90
2019-11-12 01:00:00 12.9 12 Noroeste 17 Noroeste 0 1014.4 -0.2 91
2019-11-12 00:00:00 14.2 6 Oeste 22 Oeste 0 1014.1 0 90
2019-11-11 23:00:00 15.1 10 Oeste 15 Oeste 0 1014.6 0.6 91
2019-11-11 22:00:00 15.2 5 Oeste 11 Oeste 0 1014.6 0.4 92
2019-11-11 21:00:00 15.5 6 Oeste 15 Oeste 0 1014.1 0.1 88
2019-11-11 20:00:00 16.4 10 Sudoeste 17 Oeste 0 1014 0.1 86
2019-11-11 19:00:00 17.5 13 Sudoeste 21 Sudoeste 0 1014.2 -0.1 85
2019-11-11 18:00:00 17.7 16 Sudoeste 24 Sudoeste 0 1014 -1.1 81
2019-11-11 17:00:00 18.1 15 Sudoeste 24 Sudoeste 0 1013.9 -1.6 78
2019-11-11 16:00:00 17.7 16 Oeste 24 Oeste 0 1014.3 -2.1 80
2019-11-11 15:00:00 17.3 10 Oeste 21 Oeste 0 1015.1 -1.4 83
2019-11-11 14:00:00 17.1 11 Oeste 26 Oeste 0 1015.5 -2.1 82
2019-11-11 13:00:00 17.1 13 Oeste 21 Oeste 0 1016.4 -1.2 80
2019-11-11 12:00:00 16.7 9 Sudoeste 15 Sudoeste 0 1016.5 -1 79
2019-11-11 11:00:00 14.8 5 Sur 9 Sur 0 1017.6 0.4 86
2019-11-11 10:00:00 14.1 4 Sudoeste 11 Sudoeste 0 1017.6 0.4 87
2019-11-11 09:00:00 13.4 0 Calma 17 Oeste 0 1017.5 0.2 90
2019-11-11 08:00:00 13.1 2 Noroeste 9 Noroeste 0 1017.2 0 91
2019-11-11 07:00:00 13.2 4 Noroeste 13 Oeste 0 1017.2 -0.8 90
2019-11-11 06:00:00 13.1 3 Noroeste 15 Oeste 0 1017.3 -1.5 91
2019-11-11 05:00:00 13 4 Oeste 17 Noroeste 0 1017.2 -1.5 93
2019-11-11 04:00:00 12.6 12 Noroeste 26 Noroeste 0 1018 -0.9 91
2019-11-11 03:00:00 13.5 19 Noroeste 32 Noroeste 0 1018.8 -0.3 81
2019-11-11 02:00:00 14 18 Oeste 42 Oeste 0 1018.7 -0.5 74
2019-11-11 01:00:00 13.9 24 Noroeste 37 Oeste 0 1018.9 0.5 73
2019-11-11 00:00:00 14 22 Oeste 39 Noroeste 0 1019.1 0.7 71
2019-11-10 23:00:00 13.9 24 Oeste 37 Oeste 0 1019.2 0.5 69
2019-11-10 22:00:00 14.7 22 Noroeste 37 Oeste 0 1018.4 0 61
2019-11-10 21:00:00 15.5 25 Noroeste 35 Noroeste 0 1018.4 0.7 57
2019-11-10 20:00:00 15.9 27 Noroeste 42 Noroeste 0 1018.7 0.8 54
2019-11-10 19:00:00 16.7 27 Noroeste 37 Noroeste 0 1018.4 1 46
2019-11-10 18:00:00 17.3 25 Noroeste 39 Norte 0 1017.7 0.6 43
2019-11-10 17:00:00 18.1 27 Noroeste 45 Noroeste 0 1017.9 0.3 40
2019-11-10 16:00:00 18.6 28 Noroeste 45 Noroeste 0 1017.4 -0.8 39
2019-11-10 15:00:00 19 28 Noroeste 50 Noroeste 0 1017.1 -1.9 39
2019-11-10 14:00:00 19 31 Noroeste 46 Noroeste 0 1017.6 -1.7 41
2019-11-10 13:00:00 18.6 28 Noroeste 39 Noroeste 0 1018.2 -1.2 47
2019-11-10 12:00:00 16.8 27 Noroeste 41 Noroeste 0 1019 -0.2 55
2019-11-10 11:00:00 15.7 25 Noroeste 39 Noroeste 0 1019.3 1.3 62
2019-11-10 10:00:00 13 17 Noroeste 28 Noroeste 0 1019.4 1.5 78
2019-11-10 09:00:00 11.4 16 Noroeste 30 Oeste 0 1019.2 1.2 85
2019-11-10 08:00:00 10.7 12 Oeste 18 Oeste 0 1018 0.1 85
2019-11-10 07:00:00 11.3 13 Noroeste 24 Oeste 0 1017.9 0.1 81
2019-11-10 06:00:00 11.1 12 Noroeste 18 Oeste 0 1018 0.2 81
2019-11-10 05:00:00 11.6 11 Oeste 28 Noroeste 0 1017.9 -0.1 78
2019-11-10 04:00:00 12.8 17 Noroeste 30 Noroeste 0 1017.8 -1 73
2019-11-10 03:00:00 14.5 16 Oeste 30 Oeste 0 1017.8 -1.3 80
2019-11-10 02:00:00 15.9 18 Oeste 30 Oeste 0 1018 -1.4 92
2019-11-10 01:00:00 15.5 13 Oeste 26 Sudoeste 0.1 1018.8 -0.8 93
2019-11-10 00:00:00 15.7 12 Sudoeste 18 Oeste 0 1019.1 -0.9 85